Belleville, New Jersey
Current Conditions -  °F | °C
As of 1:51 AM on Thursday 18 Dec 2014 (Local Time) from KTEB Reporting Station
Overcast Overcast  
Wind Chill: 34°   Ceiling: 4100
Heat Index: 41°   Visibility: 10mi
Dew Point: 27°   Wind: 13mph
Humidity: 57%   Direction: 300°WNW
Pressure: 29.89"   Gusts: NA
Location:  40.79°N, 74.15°W
Report Text: KTEB 180651Z 30011KT 10SM BKN041 OVC049 05/M03 A2989 RMK AO2 SLP121 T00501028
Loading
Personal Weather Stations






























Interactive Weather Map New forecast layout! Learn more

10-Day Weather Forecast

Advertisements
Track Severe Weather on mobile